Time,TemperatureF,DewpointF,PressureIn,WindDirection,WindDirectionDegrees,WindSpeedMPH,WindSpeedGustMPH,Humidity,HourlyPrecipIn,Conditions,Clouds,dailyrainin,SolarRadiationWatts/m^2,SoftwareType,DateUTC
2013-09-17 00:00:00,68.5,66.7,30.06,NNW,333,0.0,0.0,94,0.00,,OVC018,0.00,0.00,VWS V14.00,2013-09-17 04:00:00,
2013-09-17 01:00:00,67.5,66.0,30.06,NNW,333,0.0,0.0,95,0.00,,OVC018,0.00,0.00,VWS V14.00,2013-09-17 05:00:00,
2013-09-17 02:00:00,67.4,66.2,30.05,NNW,340,0.0,4.0,96,0.00,,OVC018,0.00,0.00,VWS V14.00,2013-09-17 06:00:00,
2013-09-17 03:00:00,69.1,67.3,30.05,NNW,336,0.0,1.0,94,0.00,,OVC018,0.00,0.00,VWS V14.00,2013-09-17 07:00:00,
2013-09-17 04:00:00,69.3,66.6,30.06,NW,308,0.0,0.0,91,0.00,,OVC018,0.00,0.00,VWS V14.00,2013-09-17 08:00:00,
2013-09-17 05:00:00,68.6,65.2,30.08,North,353,0.0,0.0,89,0.00,,OVC018,0.00,0.00,VWS V14.00,2013-09-17 09:00:00,
2013-09-17 06:00:00,68.1,64.7,30.11,NNE,14,0.0,0.0,89,0.00,,OVC018,0.00,0.00,VWS V14.00,2013-09-17 10:00:00,
2013-09-17 07:00:00,68.0,64.0,30.15,NW,317,0.0,0.0,87,0.00,,OVC018,0.00,42.00,VWS V14.00,2013-09-17 11:00:00,
2013-09-17 08:00:00,69.5,64.8,30.18,North,10,0.0,1.0,85,0.00,,OVC018,0.00,91.00,VWS V14.00,2013-09-17 12:00:00,
2013-09-17 09:00:00,71.4,65.6,30.20,NE,53,0.0,0.0,82,0.00,,OVC018,0.00,202.00,VWS V14.00,2013-09-17 13:00:00,
2013-09-17 10:00:00,74.6,64.2,30.20,ESE,116,7.0,14.0,70,0.00,,OVC018,0.00,450.00,VWS V14.00,2013-09-17 14:00:00,
2013-09-17 11:00:00,74.5,64.1,30.21,ENE,69,2.0,7.0,70,0.00,,OVC018,0.00,457.00,VWS V14.00,2013-09-17 15:00:00,
2013-09-17 12:00:00,76.6,64.4,30.19,NW,307,3.0,4.0,66,0.00,,OVC018,0.00,698.00,VWS V14.00,2013-09-17 16:00:00,
2013-09-17 13:00:00,78.6,63.6,30.17,SSE,162,2.0,9.0,60,0.00,,OVC018,0.00,926.00,VWS V14.00,2013-09-17 17:00:00,
2013-09-17 14:00:00,78.1,64.0,30.16,SE,124,0.0,4.0,62,0.00,,OVC018,0.00,438.00,VWS V14.00,2013-09-17 18:00:00,
2013-09-17 15:00:00,76.4,64.2,30.15,NE,44,0.0,4.0,66,0.00,,OVC018,0.00,301.00,VWS V14.00,2013-09-17 19:00:00,
2013-09-17 16:00:00,78.0,64.8,30.14,SSE,161,6.0,6.0,64,0.00,,OVC018,0.00,439.00,VWS V14.00,2013-09-17 20:00:00,
2013-09-17 17:00:00,76.9,64.2,30.13,ENE,68,1.0,3.0,65,0.00,,OVC018,0.00,160.00,VWS V14.00,2013-09-17 21:00:00,
2013-09-17 18:00:00,75.0,65.0,30.14,North,359,0.0,0.0,71,0.00,,OVC018,0.00,70.00,VWS V14.00,2013-09-17 22:00:00,
2013-09-17 19:00:00,71.4,63.8,30.15,North,0,0.0,0.0,77,0.00,,OVC018,0.00,0.00,VWS V14.00,2013-09-17 23:00:00,
2013-09-17 20:00:00,68.8,63.8,30.17,North,0,0.0,0.0,84,0.00,,OVC018,0.00,0.00,VWS V14.00,2013-09-18 00:00:00,
2013-09-17 21:00:00,68.6,63.9,30.18,NNW,331,0.0,0.0,85,0.00,,OVC018,0.00,0.00,VWS V14.00,2013-09-18 01:00:00,
2013-09-17 22:00:00,67.0,63.0,30.18,NNW,338,0.0,0.0,87,0.00,,OVC018,0.00,0.00,VWS V14.00,2013-09-18 02:00:00,
2013-09-17 23:00:00,67.1,63.1,30.19,North,349,0.0,0.0,87,0.00,,OVC018,0.00,0.00,VWS V14.00,2013-09-18 03:00:00,